createdAt,value
2019-03-27T00:01:51.869Z,56197.16
2019-03-27T00:04:22.602Z,56233.15
2019-03-27T00:06:53.306Z,56193.05
2019-03-27T00:09:24.411Z,56204.36
2019-03-27T00:11:55.499Z,56223.89
2019-03-27T00:14:26.222Z,56218.75
2019-03-27T00:16:57.250Z,56180.71
2019-03-27T00:19:28.217Z,56180.71
2019-03-27T00:21:59.119Z,56209.50
2019-03-27T00:24:29.885Z,56234.18
2019-03-27T00:27:00.531Z,56211.55
2019-03-27T00:29:31.218Z,56205.38
2019-03-27T00:32:01.856Z,56228.01
2019-03-27T00:34:32.540Z,56210.52
2019-03-27T00:37:03.216Z,56193.05
2019-03-27T00:39:33.886Z,56221.84
2019-03-27T00:42:04.907Z,56216.70
2019-03-27T00:44:35.600Z,56217.72
2019-03-27T00:47:06.565Z,56217.72
2019-03-27T00:49:37.551Z,56202.30
2019-03-27T00:52:08.215Z,56186.87
2019-03-27T00:54:38.920Z,56189.96
2019-03-27T00:57:09.679Z,56240.34
2019-03-27T00:59:40.329Z,56217.72
2019-03-27T01:02:11.009Z,56212.58
2019-03-27T01:04:41.717Z,56209.50
2019-03-27T01:07:12.654Z,56218.75
2019-03-27T01:09:43.595Z,56195.10
2019-03-27T01:12:14.895Z,56189.96
2019-03-27T01:14:45.680Z,56221.84
2019-03-27T01:17:16.694Z,56199.21
2019-03-27T01:19:47.351Z,56237.26
2019-03-27T01:22:18.069Z,56205.38
2019-03-27T01:24:48.700Z,56254.74
2019-03-27T01:27:19.568Z,56229.04
2019-03-27T01:29:50.343Z,56199.21
2019-03-27T01:32:21.038Z,56197.16
2019-03-27T01:34:51.682Z,56187.90
2019-03-27T01:37:22.513Z,56225.95
2019-03-27T01:39:53.217Z,56242.40
2019-03-27T01:42:24.319Z,56180.71
2019-03-27T01:44:54.999Z,56232.12
2019-03-27T01:47:26.088Z,56232.12
2019-03-27T01:49:56.774Z,56224.92
2019-03-27T01:52:27.443Z,56212.58
2019-03-27T01:54:58.091Z,56246.52
2019-03-27T01:57:28.837Z,56213.61
2019-03-27T01:59:59.599Z,56224.92
2019-03-27T02:02:30.363Z,56221.84
2019-03-27T02:05:01.107Z,56194.07
2019-03-27T02:07:31.739Z,56213.61
2019-03-27T02:10:02.633Z,56207.44
2019-03-27T02:12:33.632Z,56231.09
2019-03-27T02:15:04.424Z,56226.98
2019-03-27T02:17:35.078Z,56208.47
2019-03-27T02:20:06.374Z,56185.85
2019-03-27T02:22:37.069Z,56253.71
2019-03-27T02:25:08.296Z,56219.78
2019-03-27T02:27:39.290Z,56213.61
2019-03-27T02:30:10.520Z,56240.34
2019-03-27T02:32:41.299Z,56217.72
2019-03-27T02:35:12.053Z,56221.84
2019-03-27T02:37:42.680Z,56229.04
2019-03-27T02:40:13.646Z,56222.87
2019-03-27T02:42:44.447Z,56204.36
2019-03-27T02:45:15.357Z,56230.06
2019-03-27T02:47:46.148Z,56203.33
2019-03-27T02:50:17.049Z,56245.49
2019-03-27T02:52:47.870Z,56202.30
2019-03-27T02:55:18.680Z,56226.98
2019-03-27T02:57:49.437Z,56236.23
2019-03-27T03:00:21.021Z,56217.72
2019-03-27T03:02:51.785Z,56213.61
2019-03-27T03:05:22.461Z,56209.50
2019-03-27T03:07:53.103Z,56241.37
2019-03-27T03:10:24.067Z,56219.78
2019-03-27T03:12:54.809Z,56224.92
2019-03-27T03:15:26.434Z,56192.02
2019-03-27T03:17:57.167Z,56201.27
2019-03-27T03:20:28.141Z,56215.67
2019-03-27T03:22:59.713Z,56220.81
2019-03-27T03:25:30.411Z,56236.23
2019-03-27T03:28:01.450Z,56221.84
2019-03-27T03:30:32.134Z,56206.41
2019-03-27T03:33:02.877Z,56205.38
2019-03-27T03:35:33.603Z,56255.77
2019-03-27T03:38:04.292Z,56219.78
2019-03-27T03:40:35.014Z,56208.47
2019-03-27T03:43:05.961Z,56194.07
2019-03-27T03:45:36.669Z,56224.92
2019-03-27T03:48:09.813Z,56214.64
2019-03-27T03:50:44.606Z,56218.75
2019-03-27T03:53:16.479Z,56208.47
2019-03-27T03:55:47.473Z,56190.99
2019-03-27T03:58:18.597Z,56221.84
2019-03-27T04:00:50.237Z,56219.78
2019-03-27T04:03:24.168Z,56206.41
2019-03-27T04:05:55.140Z,56269.14
2019-03-27T04:08:25.856Z,56228.01
2019-03-27T04:10:56.878Z,56225.95
2019-03-27T04:13:27.601Z,56239.32
2019-03-27T04:15:58.345Z,56224.92
2019-03-27T04:18:28.967Z,56193.05
2019-03-27T04:21:00.005Z,56229.04
2019-03-27T04:23:30.818Z,56202.30
2019-03-27T04:26:09.458Z,56231.09
2019-03-27T04:28:34.783Z,56230.06
2019-03-27T04:31:05.569Z,56225.95
2019-03-27T04:33:36.229Z,56178.65
2019-03-27T04:36:06.924Z,56230.06
2019-03-27T04:38:38.372Z,56207.44
2019-03-27T04:41:09.375Z,56246.52
2019-03-27T04:43:40.094Z,56200.24
2019-03-27T04:46:11.469Z,56210.52
2019-03-27T04:48:42.487Z,56220.81
2019-03-27T04:51:13.155Z,56213.61
2019-03-27T04:53:43.927Z,56217.72
2019-03-27T04:56:14.609Z,56230.06
2019-03-27T04:58:45.337Z,56234.18
2019-03-27T05:01:16.098Z,56232.12
2019-03-27T05:03:47.048Z,56195.10
2019-03-27T05:06:17.710Z,56171.45
2019-03-27T05:08:48.410Z,56211.55
2019-03-27T05:11:19.233Z,56206.41
2019-03-27T05:13:49.925Z,56209.50
2019-03-27T05:16:20.682Z,56238.29
2019-03-27T05:18:51.417Z,56217.72
2019-03-27T05:21:22.135Z,56243.43
2019-03-27T05:23:52.896Z,56232.12
2019-03-27T05:26:24.227Z,56212.58
2019-03-27T05:28:54.891Z,56198.19
2019-03-27T05:31:26.004Z,56204.36
2019-03-27T05:33:56.710Z,56236.23
2019-03-27T05:36:27.781Z,56188.93
2019-03-27T05:38:58.515Z,56250.63
2019-03-27T05:41:29.183Z,56190.99
2019-03-27T05:43:59.960Z,56205.38
2019-03-27T05:46:30.691Z,56221.84
2019-03-27T05:49:01.934Z,56213.61
2019-03-27T05:51:32.697Z,56228.01
2019-03-27T05:54:03.373Z,56215.67
2019-03-27T05:56:34.108Z,56233.15
2019-03-27T05:59:04.917Z,56193.05
2019-03-27T06:01:35.553Z,56228.01
2019-03-27T06:04:06.308Z,56216.70
2019-03-27T06:06:36.945Z,56199.21
2019-03-27T06:09:08.826Z,56213.61
2019-03-27T06:11:39.475Z,56212.58
2019-03-27T06:14:10.158Z,56251.66
2019-03-27T06:16:41.132Z,56208.47
2019-03-27T06:19:11.833Z,56206.41
2019-03-27T06:21:42.503Z,56221.84
2019-03-27T06:24:13.445Z,56219.78
2019-03-27T06:26:44.088Z,56218.75
2019-03-27T06:29:15.964Z,56232.12
2019-03-27T06:31:47.062Z,56197.16
2019-03-27T06:34:17.719Z,56197.16
2019-03-27T06:36:48.417Z,56224.92
2019-03-27T06:39:19.327Z,56203.33
2019-03-27T06:41:50.275Z,56215.67
2019-03-27T06:44:21.229Z,56226.98
2019-03-27T06:46:51.909Z,56176.59
2019-03-27T06:49:22.560Z,56207.44
2019-03-27T06:51:53.581Z,56177.62
2019-03-27T06:54:24.527Z,56238.29
2019-03-27T06:56:55.549Z,56212.58
2019-03-27T06:59:26.210Z,56176.59
2019-03-27T07:01:56.855Z,56189.96
2019-03-27T07:04:27.525Z,56225.95
2019-03-27T07:06:58.208Z,56206.41
2019-03-27T07:09:29.234Z,56213.61
2019-03-27T07:11:59.953Z,56198.19
2019-03-27T07:14:30.916Z,56170.42
2019-03-27T07:17:01.613Z,56187.90
2019-03-27T07:19:32.290Z,56181.73
2019-03-27T07:22:03.034Z,56177.62
2019-03-27T07:24:33.701Z,56180.71
2019-03-27T07:27:04.413Z,56176.59
2019-03-27T07:29:35.079Z,56184.82
2019-03-27T07:32:05.826Z,56192.02
2019-03-27T07:34:36.729Z,56186.87
2019-03-27T07:37:07.393Z,56177.62
2019-03-27T07:39:38.267Z,56208.47
2019-03-27T07:42:09.270Z,56187.90
2019-03-27T07:44:39.957Z,56148.83
2019-03-27T07:47:10.684Z,56195.10
2019-03-27T07:49:41.351Z,56192.02
2019-03-27T07:52:12.628Z,56173.51
2019-03-27T07:54:43.668Z,56188.93
2019-03-27T07:57:14.360Z,56164.25
2019-03-27T07:59:45.024Z,56160.14
2019-03-27T08:02:15.675Z,56175.56
2019-03-27T08:04:46.384Z,56162.20
2019-03-27T08:07:26.735Z,56186.87
2019-03-27T08:09:49.540Z,56174.54
2019-03-27T08:12:20.281Z,56188.93
2019-03-27T08:14:51.054Z,56178.65
2019-03-27T08:17:21.675Z,56174.54
2019-03-27T08:19:52.406Z,56176.59
2019-03-27T08:22:23.099Z,56157.05
2019-03-27T08:24:53.767Z,56197.16
2019-03-27T08:27:24.439Z,56158.09
2019-03-27T08:29:55.146Z,56142.66
2019-03-27T08:32:25.837Z,56156.03
2019-03-27T08:34:56.528Z,56119.01
2019-03-27T08:37:27.190Z,56147.80
2019-03-27T08:39:58.371Z,56138.55
2019-03-27T08:42:29.104Z,56113.87
2019-03-27T08:44:59.805Z,56168.37
2019-03-27T08:47:30.531Z,56140.61
2019-03-27T08:50:02.505Z,56122.09
2019-03-27T08:52:33.151Z,56168.37
2019-03-27T08:55:04.093Z,56166.31
2019-03-27T08:57:34.810Z,56141.63
2019-03-27T09:00:09.210Z,56156.03
2019-03-27T09:02:39.965Z,56133.41
2019-03-27T09:05:11.794Z,56145.75
2019-03-27T09:07:42.536Z,56148.83
2019-03-27T09:10:14.083Z,56178.65
2019-03-27T09:12:44.813Z,56173.51
2019-03-27T09:15:15.772Z,56141.63
2019-03-27T09:17:46.498Z,56147.80
2019-03-27T09:20:18.977Z,56144.71
2019-03-27T09:22:50.343Z,56141.63
2019-03-27T09:25:21.371Z,56137.52
2019-03-27T09:27:52.337Z,56127.23
2019-03-27T09:30:23.990Z,56123.12
2019-03-27T09:32:54.960Z,56124.15
2019-03-27T09:35:25.958Z,56117.98
2019-03-27T09:37:56.953Z,56104.62
2019-03-27T09:40:27.673Z,56122.09
2019-03-27T09:42:58.649Z,56090.22
2019-03-27T09:45:29.604Z,56135.46
2019-03-27T09:48:00.733Z,56088.16
2019-03-27T09:50:31.413Z,56155.00
2019-03-27T09:53:02.118Z,56116.95
2019-03-27T09:55:32.821Z,56138.55
2019-03-27T09:58:03.533Z,56133.41
2019-03-27T10:01:03.146Z,56139.57
2019-03-27T10:03:34.062Z,56115.93
2019-03-27T10:06:04.789Z,56145.75
2019-03-27T10:08:35.595Z,56121.07
2019-03-27T10:11:06.807Z,56098.45
2019-03-27T10:13:37.860Z,56090.22
2019-03-27T10:16:08.663Z,56106.67
2019-03-27T10:18:39.369Z,56128.27
2019-03-27T10:21:10.135Z,56125.18
2019-03-27T10:23:40.825Z,56135.46
2019-03-27T10:26:13.266Z,56147.80
2019-03-27T10:28:44.004Z,56166.31
2019-03-27T10:31:14.766Z,56164.25
2019-03-27T10:33:45.747Z,56096.39
2019-03-27T10:36:16.458Z,56126.21
2019-03-27T10:38:47.366Z,56119.01
2019-03-27T10:41:18.330Z,56072.74
2019-03-27T10:43:48.999Z,56100.50
2019-03-27T10:46:19.725Z,56096.39
2019-03-27T10:48:52.852Z,56079.94
2019-03-27T10:51:23.119Z,56112.84
2019-03-27T10:53:53.787Z,56094.33
2019-03-27T10:56:24.789Z,56138.55
2019-03-27T10:58:56.401Z,56098.45
2019-03-27T11:01:27.430Z,56094.33
2019-03-27T11:03:58.589Z,56108.73
2019-03-27T11:06:29.286Z,56101.53
2019-03-27T11:08:59.989Z,56115.93
2019-03-27T11:11:30.820Z,56131.35
2019-03-27T11:14:01.500Z,56093.30
2019-03-27T11:16:32.178Z,56133.41
2019-03-27T11:19:02.844Z,56127.23
2019-03-27T11:21:33.812Z,56176.59
2019-03-27T11:24:04.510Z,56141.63
2019-03-27T11:26:35.174Z,56126.21
2019-03-27T11:29:05.967Z,56128.27
2019-03-27T11:31:36.599Z,56101.53
2019-03-27T11:34:07.346Z,56150.89
2019-03-27T11:36:38.051Z,56135.46
2019-03-27T11:39:10.868Z,56114.90
2019-03-27T11:41:41.554Z,56135.46
2019-03-27T11:44:12.864Z,56071.71
2019-03-27T11:46:43.882Z,56088.16
2019-03-27T11:49:14.533Z,56104.62
2019-03-27T11:51:45.345Z,56074.80
2019-03-27T11:54:16.326Z,56091.25
2019-03-27T11:56:47.082Z,56116.95
2019-03-27T11:59:17.778Z,56119.01
2019-03-27T12:01:48.513Z,56134.43
2019-03-27T12:04:19.697Z,56108.73
2019-03-27T12:06:50.389Z,56110.79
2019-03-27T12:09:21.105Z,56120.04
2019-03-27T12:11:52.087Z,56120.04
2019-03-27T12:14:23.614Z,56112.84
2019-03-27T12:16:54.239Z,56098.45
2019-03-27T12:19:24.938Z,56128.27
2019-03-27T12:21:55.607Z,56122.09
2019-03-27T12:24:28.628Z,56099.47
2019-03-27T12:26:58.851Z,56150.89
2019-03-27T12:29:29.536Z,56104.62
2019-03-27T12:32:00.777Z,56139.57
2019-03-27T12:34:31.448Z,56126.21
2019-03-27T12:37:02.101Z,56127.23
2019-03-27T12:39:32.869Z,56111.81
2019-03-27T12:42:03.861Z,56125.18
2019-03-27T12:44:34.688Z,56128.27
2019-03-27T12:47:05.864Z,56065.54
2019-03-27T12:49:36.948Z,56095.36
2019-03-27T12:52:07.732Z,56099.47
2019-03-27T12:54:38.402Z,56114.90
2019-03-27T12:57:09.130Z,56112.84
2019-03-27T12:59:40.435Z,56082.00
2019-03-27T13:02:11.214Z,56095.36
2019-03-27T13:04:41.872Z,56142.66
2019-03-27T13:07:12.960Z,56079.94
2019-03-27T13:09:44.891Z,56065.54
2019-03-27T13:12:15.607Z,56075.82
2019-03-27T13:14:46.535Z,56076.85
2019-03-27T13:17:17.202Z,56092.28
2019-03-27T13:19:48.225Z,56064.51
2019-03-27T13:22:18.940Z,56080.96
2019-03-27T13:24:49.640Z,56036.75
2019-03-27T13:27:20.673Z,56085.08
2019-03-27T13:29:51.362Z,56077.88
2019-03-27T13:32:22.340Z,56054.23
2019-03-27T13:34:53.603Z,56053.20
2019-03-27T13:37:24.355Z,56090.22
2019-03-27T13:39:55.363Z,56092.28
2019-03-27T13:42:26.513Z,56073.77
2019-03-27T13:44:57.947Z,56103.59
2019-03-27T13:47:28.593Z,56120.04
2019-03-27T13:49:59.244Z,56078.91
2019-03-27T13:52:29.948Z,56064.51
2019-03-27T13:55:00.637Z,56071.71
2019-03-27T13:57:32.026Z,56091.25
2019-03-27T14:00:02.984Z,56080.96
2019-03-27T14:02:33.731Z,56100.50
2019-03-27T14:05:04.746Z,56091.25
2019-03-27T14:07:35.419Z,56104.62
2019-03-27T14:10:07.194Z,56084.05
2019-03-27T14:12:37.954Z,56098.45
2019-03-27T14:15:11.817Z,56089.19
2019-03-27T14:17:42.560Z,56078.91
2019-03-27T14:20:15.397Z,56078.91
2019-03-27T14:22:46.089Z,56132.38
2019-03-27T14:25:17.354Z,56083.02
2019-03-27T14:27:48.527Z,56096.39
2019-03-27T14:31:01.179Z,56106.67
2019-03-27T14:33:31.824Z,56107.70
2019-03-27T14:36:02.559Z,56103.59
2019-03-27T14:38:33.205Z,56083.02
2019-03-27T14:41:03.855Z,56071.71
2019-03-27T14:43:34.527Z,56053.20
2019-03-27T14:46:05.617Z,56089.19
2019-03-27T14:48:36.343Z,56085.08
2019-03-27T14:51:07.190Z,56060.40
2019-03-27T14:53:37.855Z,56090.22
2019-03-27T14:56:08.598Z,56109.76
2019-03-27T14:58:39.281Z,56100.50
2019-03-27T15:01:10.418Z,56053.20
2019-03-27T15:03:41.076Z,56075.82
2019-03-27T15:06:11.742Z,56069.65
2019-03-27T15:08:43.970Z,56089.19
2019-03-27T15:11:14.991Z,56095.36
2019-03-27T15:13:45.656Z,56058.34
2019-03-27T15:16:16.742Z,56097.42
2019-03-27T15:18:47.443Z,56079.94
2019-03-27T15:21:18.231Z,56082.00
2019-03-27T15:23:49.226Z,56071.71
2019-03-27T15:26:19.948Z,56063.48
2019-03-27T15:28:51.026Z,56090.22
2019-03-27T15:31:21.838Z,56049.09
2019-03-27T15:33:53.272Z,56094.33
2019-03-27T15:36:23.950Z,56089.19
2019-03-27T15:38:54.627Z,56061.43
2019-03-27T15:41:25.870Z,56073.77
2019-03-27T15:43:56.816Z,56121.07
2019-03-27T15:46:27.497Z,56099.47
2019-03-27T15:48:58.170Z,56143.69
2019-03-27T15:51:29.191Z,56079.94
2019-03-27T15:53:59.871Z,56092.28
2019-03-27T15:56:30.578Z,56096.39
2019-03-27T15:59:01.845Z,56093.30
2019-03-27T16:01:32.501Z,56121.07
2019-03-27T16:04:03.192Z,56102.56
2019-03-27T16:06:34.494Z,56082.00
2019-03-27T16:09:08.979Z,56123.12
2019-03-27T16:11:39.746Z,56088.16
2019-03-27T16:14:10.538Z,56112.84
2019-03-27T16:16:41.549Z,56149.86
2019-03-27T16:19:12.257Z,56088.16
2019-03-27T16:21:43.380Z,56116.95
2019-03-27T16:24:14.071Z,56113.87
2019-03-27T16:26:44.751Z,56124.15
2019-03-27T16:29:15.731Z,56121.07
2019-03-27T16:31:46.464Z,56146.77
2019-03-27T16:34:17.158Z,56135.46
2019-03-27T16:36:48.146Z,56116.95
2019-03-27T16:39:18.869Z,56133.41
2019-03-27T16:41:49.557Z,56105.64
2019-03-27T16:44:20.203Z,56114.90
2019-03-27T16:46:50.878Z,56153.97
2019-03-27T16:49:21.550Z,56121.07
2019-03-27T16:51:52.245Z,56098.45
2019-03-27T16:54:23.283Z,56089.19
2019-03-27T16:56:53.935Z,56135.46
2019-03-27T16:59:24.672Z,56093.30
2019-03-27T17:01:55.472Z,56103.59
2019-03-27T17:04:26.554Z,56125.18
2019-03-27T17:06:57.208Z,56124.15
2019-03-27T17:09:27.877Z,56129.29
2019-03-27T17:11:58.803Z,56123.12
2019-03-27T17:14:29.880Z,56117.98
2019-03-27T17:17:00.579Z,56090.22
2019-03-27T17:19:31.678Z,56119.01
2019-03-27T17:22:02.353Z,56117.98
2019-03-27T17:24:33.366Z,56136.49
2019-03-27T17:27:04.030Z,56082.00
2019-03-27T17:29:34.731Z,56123.12
2019-03-27T17:32:05.746Z,56105.64
2019-03-27T17:34:36.436Z,56131.35
2019-03-27T17:37:07.158Z,56141.63
2019-03-27T17:39:37.868Z,56139.57
2019-03-27T17:42:08.932Z,56133.41
2019-03-27T17:44:39.657Z,56162.20
2019-03-27T17:47:10.348Z,56119.01
2019-03-27T17:49:40.996Z,56138.55
2019-03-27T17:52:11.999Z,56095.36
2019-03-27T17:54:43.247Z,56135.46
2019-03-27T17:57:13.931Z,56147.80
2019-03-27T17:59:45.032Z,56155.00
2019-03-27T18:02:15.760Z,56131.35
2019-03-27T18:04:46.424Z,56129.29
2019-03-27T18:07:17.420Z,56113.87
2019-03-27T18:09:48.396Z,56140.61
2019-03-27T18:12:19.050Z,56144.71
2019-03-27T18:14:49.813Z,56116.95
2019-03-27T18:17:20.573Z,56123.12
2019-03-27T18:19:51.282Z,56116.95
2019-03-27T18:22:22.602Z,56137.52
2019-03-27T18:24:53.308Z,56130.32
2019-03-27T18:27:24.453Z,56120.04
2019-03-27T18:29:55.455Z,56139.57
2019-03-27T18:32:45.778Z,56142.66
2019-03-27T18:35:16.521Z,56142.66
2019-03-27T18:37:47.531Z,56143.69
2019-03-27T18:40:18.249Z,56137.52
2019-03-27T18:42:49.206Z,56112.84
2019-03-27T18:45:19.896Z,56132.38
2019-03-27T18:47:50.592Z,56125.18
2019-03-27T18:50:21.283Z,56108.73
2019-03-27T18:52:51.968Z,56139.57
2019-03-27T18:55:26.800Z,56145.75
2019-03-27T18:58:00.553Z,56124.15
2019-03-27T19:00:28.110Z,56139.57
2019-03-27T19:02:58.887Z,56116.95
2019-03-27T19:05:30.643Z,56143.69
2019-03-27T19:08:01.399Z,56139.57
2019-03-27T19:10:32.102Z,56141.63
2019-03-27T19:13:02.828Z,56135.46
2019-03-27T19:15:33.711Z,56159.11
2019-03-27T19:18:05.034Z,56133.41
2019-03-27T19:20:35.920Z,56127.23
2019-03-27T19:23:12.704Z,56151.91
2019-03-27T19:25:43.415Z,56123.12
2019-03-27T19:28:33.082Z,56125.18
2019-03-27T19:31:04.103Z,56142.66
2019-03-27T19:33:35.092Z,56116.95
2019-03-27T19:36:06.633Z,56140.61
2019-03-27T19:38:37.720Z,56179.68
2019-03-27T19:41:08.840Z,56139.57
2019-03-27T19:43:39.535Z,56147.80
2019-03-27T19:46:10.651Z,56127.23
2019-03-27T19:48:42.205Z,56114.90
2019-03-27T19:51:12.971Z,56143.69
2019-03-27T19:53:43.903Z,56132.38
2019-03-27T19:56:15.005Z,56120.04
2019-03-27T19:58:45.655Z,56144.71
2019-03-27T20:01:17.016Z,56130.32
2019-03-27T20:03:48.045Z,56146.77
2019-03-27T20:06:18.719Z,56167.34
2019-03-27T20:08:49.424Z,56144.71
2019-03-27T20:11:20.504Z,56122.09
2019-03-27T20:13:51.225Z,56151.91
2019-03-27T20:16:22.354Z,56116.95
2019-03-27T20:18:53.459Z,56143.69
2019-03-27T20:21:24.135Z,56148.83
2019-03-27T20:23:54.846Z,56123.12
2019-03-27T20:26:25.582Z,56122.09
2019-03-27T20:28:56.541Z,56135.46
2019-03-27T20:31:27.219Z,56144.71
2019-03-27T20:33:57.891Z,56148.83
2019-03-27T20:36:28.848Z,56139.57
2019-03-27T20:38:59.595Z,56139.57
2019-03-27T20:41:30.303Z,56123.12
2019-03-27T20:44:01.004Z,56150.89
2019-03-27T20:46:32.352Z,56150.89
2019-03-27T20:49:03.087Z,56142.66
2019-03-27T20:51:34.154Z,56147.80
2019-03-27T20:54:05.222Z,56153.97
2019-03-27T20:56:36.164Z,56152.94
2019-03-27T20:59:07.341Z,56103.59
2019-03-27T21:01:38.625Z,56139.57
2019-03-27T21:04:10.158Z,56139.57
2019-03-27T21:06:41.389Z,56177.62
2019-03-27T21:09:12.076Z,56150.89
2019-03-27T21:11:43.075Z,56135.46
2019-03-27T21:14:14.032Z,56136.49
2019-03-27T21:16:44.725Z,56139.57
2019-03-27T21:19:15.462Z,56171.45
2019-03-27T21:21:46.150Z,56127.23
2019-03-27T21:24:17.184Z,56150.89
2019-03-27T21:26:48.201Z,56139.57
2019-03-27T21:29:18.924Z,56159.11
2019-03-27T21:31:52.323Z,56139.57
2019-03-27T21:34:26.250Z,56141.63
2019-03-27T21:36:57.611Z,56178.65
2019-03-27T21:39:29.219Z,56161.17
2019-03-27T21:41:59.954Z,56179.68
2019-03-27T21:44:34.419Z,56115.93
2019-03-27T21:47:05.778Z,56148.83
2019-03-27T21:49:36.800Z,56142.66
2019-03-27T21:52:07.607Z,56144.71
2019-03-27T21:54:38.354Z,56147.80
2019-03-27T21:57:09.403Z,56132.38
2019-03-27T21:59:40.174Z,56141.63
2019-03-27T22:02:11.440Z,56141.63
2019-03-27T22:04:42.496Z,56184.82
2019-03-27T22:07:13.266Z,56186.87
2019-03-27T22:09:44.288Z,56138.55
2019-03-27T22:12:15.418Z,56153.97
2019-03-27T22:14:46.916Z,56143.69
2019-03-27T22:17:17.931Z,56151.91
2019-03-27T22:19:48.657Z,56186.87
2019-03-27T22:22:20.173Z,56141.63
2019-03-27T22:24:50.932Z,56139.57
2019-03-27T22:27:22.022Z,56173.51
2019-03-27T22:29:53.074Z,56181.73
2019-03-27T22:32:24.572Z,56144.71
2019-03-27T22:34:55.622Z,56180.71
2019-03-27T22:37:45.383Z,56170.42
2019-03-27T22:40:16.753Z,56181.73
2019-03-27T22:42:48.216Z,56169.39
2019-03-27T22:45:19.402Z,56149.86
2019-03-27T22:47:50.093Z,56176.59
2019-03-27T22:50:21.480Z,56140.61
2019-03-27T22:52:52.835Z,56166.31
2019-03-27T22:55:23.550Z,56153.97
2019-03-27T22:57:54.664Z,56165.28
2019-03-27T23:00:35.655Z,56162.20
2019-03-27T23:03:17.747Z,56160.14
2019-03-27T23:05:39.267Z,56174.54
2019-03-27T23:08:10.367Z,56182.76
2019-03-27T23:10:41.358Z,56135.46
2019-03-27T23:13:12.695Z,56176.59
2019-03-27T23:15:43.738Z,56190.99
2019-03-27T23:18:14.775Z,56172.48
2019-03-27T23:20:45.818Z,56170.42
2019-03-27T23:23:16.557Z,56151.91
2019-03-27T23:25:47.422Z,56156.03
2019-03-27T23:28:18.438Z,56174.54
2019-03-27T23:30:49.218Z,56165.28
2019-03-27T23:33:21.029Z,56173.51
2019-03-27T23:35:52.107Z,56201.27
2019-03-27T23:38:23.431Z,56147.80
2019-03-27T23:40:54.441Z,56155.00
2019-03-27T23:43:25.503Z,56160.14
2019-03-27T23:45:56.579Z,56173.51
2019-03-27T23:48:27.822Z,56176.59
2019-03-27T23:50:58.539Z,56180.71
2019-03-27T23:53:29.262Z,56174.54
2019-03-27T23:56:00.346Z,56202.30
2019-03-27T23:58:31.312Z,56170.42
